This is the latest recevied weather packets stored in our database for station/object IU1OPQ-3. If no packets are shown the sender has not sent any weather packets the latest 10 day(s).
| Time | Temp. | Humidity | Pressure | Rain* | Wind** | Luminosity | Snow |
|---|---|---|---|---|---|---|---|
| 1778184901 | 12.22° C | 83% | 1013.6 hPa | 0 mm | - | - | - |
| 1778184001 | 12.22° C | 82% | 1013.5 hPa | 0 mm | - | - | - |
| 1778183100 | 12.78° C | 81% | 1013.3 hPa | 0 mm | - | - | - |
| 1778182201 | 12.78° C | 81% | 1013 hPa | 0 mm | - | - | - |
| 1778181301 | 12.78° C | 80% | 1012.8 hPa | 0 mm | - | - | - |
| 1778180401 | 13.33° C | 77% | 1012.7 hPa | 0 mm | - | - | - |
| 1778179501 | 13.33° C | 76% | 1012.6 hPa | 0 mm | - | - | - |
| 1778178600 | 13.89° C | 74% | 1012.6 hPa | 0 mm | - | - | - |
| 1778177701 | 14.44° C | 73% | 1012.6 hPa | 0 mm | - | - | - |
| 1778176801 | 14.44° C | 71% | 1012.4 hPa | 0 mm | - | - | - |
| 1778175901 | 15° C | 69% | 1012.5 hPa | 0 mm | - | - | - |
| 1778175001 | 15° C | 67% | 1012.3 hPa | 0 mm | - | - | - |
| 1778174101 | 15.56° C | 67% | 1012.4 hPa | 0 mm | - | - | - |
| 1778173200 | 16.11° C | 64% | 1012.4 hPa | 0 mm | - | - | - |
| 1778172300 | 16.11° C | 66% | 1012.3 hPa | 0 mm | - | - | - |
| 1778171400 | 16.67° C | 66% | 1012.3 hPa | 0 mm | - | - | - |
| 1778169601 | 16.67° C | 68% | 1012.1 hPa | 0 mm | - | - | - |
| 1778168701 | 17.22° C | 68% | 1012 hPa | 0 mm | - | - | - |
| 1778167800 | 17.22° C | 67% | 1012.2 hPa | 0 mm | - | - | - |
| 1778166901 | 17.78° C | 65% | 1012.1 hPa | 0 mm | - | - | - |
| 1778166001 | 17.22° C | 66% | 1012.1 hPa | 0 mm | - | - | - |
| 1778165101 | 18.33° C | 59% | 1012.2 hPa | 0 mm | - | - | - |
| 1778164201 | 18.33° C | 59% | 1012.3 hPa | 0 mm | - | - | - |
| 1778163301 | 18.33° C | 60% | 1012.6 hPa | 0 mm | - | - | - |
| 1778162401 | 19.44° C | 56% | 1012.3 hPa | 0 mm | - | - | - |
* Rain latest hour (hover to see other rain measurements)
** Current wind speed in m/s (hover to see current wind gust speed)